createdAt,value
2022-09-27T00:01:49.700Z,16.90
2022-09-27T00:06:02.638Z,17.00
2022-09-27T00:10:05.874Z,17.00
2022-09-27T00:14:10.821Z,17.00
2022-09-27T00:18:13.573Z,17.10
2022-09-27T00:22:16.495Z,17.10
2022-09-27T00:26:20.359Z,17.20
2022-09-27T00:30:23.172Z,17.20
2022-09-27T00:34:26.269Z,17.30
2022-09-27T00:38:28.954Z,17.30
2022-09-27T00:42:31.693Z,17.40
2022-09-27T00:46:42.584Z,17.40
2022-09-27T00:50:50.667Z,17.40
2022-09-27T00:55:00.581Z,17.30
2022-09-27T00:59:21.034Z,17.30
2022-09-27T01:03:49.384Z,17.30
2022-09-27T01:07:56.645Z,17.20
2022-09-27T01:12:18.111Z,17.20
2022-09-27T01:16:43.261Z,17.10
2022-09-27T01:21:08.773Z,17.10
2022-09-27T01:25:12.108Z,17.10
2022-09-27T01:29:54.870Z,17.00
2022-09-27T01:34:25.760Z,17.00
2022-09-27T01:38:44.346Z,16.90
2022-09-27T01:42:55.270Z,16.90
2022-09-27T01:47:08.366Z,16.80
2022-09-27T01:51:52.950Z,16.70
2022-09-27T01:55:57.820Z,16.60
2022-09-27T02:00:23.469Z,16.50
2022-09-27T02:04:33.322Z,16.30
2022-09-27T02:08:55.484Z,16.30
2022-09-27T02:13:24.845Z,16.30
2022-09-27T02:18:06.339Z,16.20
2022-09-27T02:22:39.158Z,16.30
2022-09-27T02:26:46.331Z,16.40
2022-09-27T02:30:49.582Z,16.50
2022-09-27T02:35:01.471Z,16.50
2022-09-27T02:39:04.735Z,16.50
2022-09-27T02:43:09.032Z,16.40
2022-09-27T02:47:29.225Z,16.40
2022-09-27T02:51:58.678Z,16.30
2022-09-27T02:56:16.733Z,16.20
2022-09-27T03:00:34.303Z,16.30
2022-09-27T03:05:02.651Z,16.40
2022-09-27T03:09:05.593Z,16.50
2022-09-27T03:13:08.728Z,16.50
2022-09-27T03:17:12.052Z,16.50
2022-09-27T03:21:50.463Z,16.50
2022-09-27T03:25:53.596Z,16.50
2022-09-27T03:29:56.402Z,16.50
2022-09-27T03:33:59.533Z,16.50
2022-09-27T03:38:03.466Z,16.50
2022-09-27T03:42:06.443Z,16.60
2022-09-27T03:46:10.256Z,16.60
2022-09-27T03:50:14.492Z,16.60
2022-09-27T03:54:17.312Z,16.60
2022-09-27T03:58:20.021Z,16.70
2022-09-27T04:02:23.492Z,16.70
2022-09-27T04:06:44.593Z,16.80
2022-09-27T04:10:47.336Z,16.80
2022-09-27T04:14:50.139Z,16.90
2022-09-27T04:19:19.032Z,17.00
2022-09-27T04:23:37.666Z,17.00
2022-09-27T04:27:46.230Z,17.00
2022-09-27T04:31:50.054Z,16.80
2022-09-27T04:36:11.406Z,16.60
2022-09-27T04:40:17.327Z,16.60
2022-09-27T04:44:20.049Z,16.50
2022-09-27T04:48:26.612Z,16.50
2022-09-27T04:52:29.420Z,16.60
2022-09-27T04:56:32.060Z,16.60
2022-09-27T05:00:37.077Z,16.70
2022-09-27T05:05:00.003Z,16.70
2022-09-27T05:09:09.129Z,16.70
2022-09-27T05:13:26.196Z,16.70
2022-09-27T05:17:29.007Z,16.70
2022-09-27T05:21:50.851Z,16.70
2022-09-27T05:25:57.415Z,16.60
2022-09-27T05:30:03.168Z,16.70
2022-09-27T05:34:18.434Z,16.70
2022-09-27T05:38:32.951Z,16.60
2022-09-27T05:42:39.934Z,16.50
2022-09-27T05:46:42.670Z,16.40
2022-09-27T05:50:46.531Z,16.30
2022-09-27T05:54:49.276Z,16.30
2022-09-27T05:58:52.477Z,16.50
2022-09-27T06:03:06.483Z,16.60
2022-09-27T06:07:34.042Z,16.80
2022-09-27T06:11:43.051Z,16.80
2022-09-27T06:15:51.426Z,17.00
2022-09-27T06:19:54.674Z,17.00
2022-09-27T06:24:00.723Z,17.10
2022-09-27T06:28:08.106Z,17.30
2022-09-27T06:32:14.069Z,17.40
2022-09-27T06:36:38.245Z,17.50
2022-09-27T06:40:43.730Z,17.60
2022-09-27T06:45:03.308Z,17.60
2022-09-27T06:49:27.228Z,17.50
2022-09-27T06:53:30.158Z,17.60
2022-09-27T06:57:59.735Z,17.60
2022-09-27T07:02:05.631Z,17.70
2022-09-27T07:06:26.483Z,17.70
2022-09-27T07:10:37.769Z,17.70
2022-09-27T07:14:41.136Z,17.80
2022-09-27T07:18:50.154Z,17.90
2022-09-27T07:22:55.506Z,17.90
2022-09-27T07:27:00.977Z,18.00
2022-09-27T07:31:05.154Z,18.00
2022-09-27T07:35:12.198Z,18.10
2022-09-27T07:39:15.144Z,18.20
2022-09-27T07:43:19.654Z,18.20
2022-09-27T07:47:27.634Z,18.10
2022-09-27T07:51:56.863Z,18.10
2022-09-27T07:56:27.898Z,18.00
2022-09-27T08:00:30.881Z,18.00
2022-09-27T08:04:34.119Z,18.00
2022-09-27T08:08:37.372Z,18.00
2022-09-27T08:12:41.237Z,18.00
2022-09-27T08:16:44.580Z,18.00
2022-09-27T08:20:51.206Z,18.00
2022-09-27T08:25:08.618Z,18.00
2022-09-27T08:29:12.738Z,18.00
2022-09-27T08:33:19.843Z,18.00
2022-09-27T08:37:23.190Z,18.00
2022-09-27T08:42:01.345Z,18.00
2022-09-27T08:46:10.477Z,18.00
2022-09-27T08:50:23.666Z,18.00
2022-09-27T08:54:31.543Z,18.00
2022-09-27T08:58:39.941Z,18.00
2022-09-27T09:02:52.249Z,18.10
2022-09-27T09:07:01.018Z,18.20
2022-09-27T09:11:35.443Z,18.50
2022-09-27T09:15:54.943Z,18.90
2022-09-27T09:20:42.586Z,19.30
2022-09-27T09:25:04.220Z,19.70
2022-09-27T09:29:13.350Z,19.70
2022-09-27T09:33:38.199Z,19.70
2022-09-27T09:37:58.067Z,19.70
2022-09-27T09:42:32.310Z,19.70
2022-09-27T09:46:45.934Z,19.80
2022-09-27T09:50:54.791Z,19.90
2022-09-27T09:55:18.736Z,20.00
2022-09-27T09:59:41.321Z,20.40
2022-09-27T10:03:45.205Z,20.70
2022-09-27T10:07:51.671Z,20.80
2022-09-27T10:11:56.606Z,21.00
2022-09-27T10:16:11.240Z,21.20
2022-09-27T10:20:51.239Z,21.30
2022-09-27T10:24:58.348Z,21.30
2022-09-27T10:29:37.067Z,21.30
2022-09-27T10:34:01.112Z,21.50
2022-09-27T10:38:27.045Z,22.00
2022-09-27T10:42:38.982Z,22.00
2022-09-27T10:46:50.900Z,21.60
2022-09-27T10:51:30.037Z,21.50
2022-09-27T10:55:37.143Z,21.40
2022-09-27T10:59:43.449Z,21.40
2022-09-27T11:03:50.501Z,21.30
2022-09-27T11:07:54.805Z,21.40
2022-09-27T11:12:14.627Z,21.50
2022-09-27T11:16:41.779Z,21.30
2022-09-27T11:21:01.195Z,20.80
2022-09-27T11:25:18.104Z,20.00
2022-09-27T11:29:56.343Z,19.80
2022-09-27T11:34:48.057Z,19.50
2022-09-27T11:39:25.049Z,19.20
2022-09-27T11:43:36.070Z,19.30
2022-09-27T11:47:57.412Z,19.40
2022-09-27T11:52:31.806Z,19.50
2022-09-27T11:56:52.268Z,19.80
2022-09-27T12:01:15.252Z,20.00
2022-09-27T12:05:21.870Z,20.30
2022-09-27T12:09:37.994Z,20.40
2022-09-27T12:13:54.548Z,20.40
2022-09-27T12:18:06.285Z,20.40
2022-09-27T12:22:22.746Z,20.50
2022-09-27T12:26:42.640Z,20.50
2022-09-27T12:31:11.058Z,20.00
2022-09-27T12:35:27.883Z,19.20
2022-09-27T12:39:51.639Z,19.10
2022-09-27T12:44:04.319Z,19.50
2022-09-27T12:48:45.482Z,19.60
2022-09-27T12:52:54.504Z,19.50
2022-09-27T12:57:06.298Z,19.80
2022-09-27T13:01:22.940Z,19.90
2022-09-27T13:05:39.173Z,19.80
2022-09-27T13:09:51.718Z,19.70
2022-09-27T13:13:57.271Z,19.60
2022-09-27T13:18:05.732Z,19.60
2022-09-27T13:22:27.711Z,19.80
2022-09-27T13:36:45.299Z,20.40
2022-09-27T13:40:52.214Z,20.40
2022-09-27T13:45:18.359Z,20.40
2022-09-27T13:54:40.813Z,20.50
2022-09-27T14:03:46.997Z,20.50
2022-09-27T14:21:22.397Z,20.50
2022-09-27T14:25:49.872Z,20.40
2022-09-27T14:30:03.385Z,20.30
2022-09-27T14:34:13.173Z,20.20
2022-09-27T14:38:39.463Z,20.10
2022-09-27T14:43:08.482Z,20.00
2022-09-27T14:51:42.468Z,19.50
2022-09-27T14:55:45.716Z,19.30
2022-09-27T14:59:48.605Z,19.00
2022-09-27T15:03:53.832Z,18.80
2022-09-27T15:07:59.522Z,18.60
2022-09-27T15:16:24.197Z,18.80
2022-09-27T15:20:35.369Z,18.80
2022-09-27T15:42:18.309Z,19.00
2022-09-27T15:46:43.812Z,19.10
2022-09-27T15:50:56.816Z,19.10
2022-09-27T16:29:58.364Z,20.00
2022-09-27T16:34:08.165Z,20.00
2022-09-27T16:42:27.860Z,19.90
2022-09-27T16:46:36.295Z,19.90
2022-09-27T16:50:57.693Z,19.80
2022-09-27T16:55:01.225Z,19.60
2022-09-27T16:59:07.092Z,19.40
2022-09-27T17:11:47.458Z,18.90
2022-09-27T17:20:27.999Z,18.60
2022-09-27T17:24:31.295Z,18.40
2022-09-27T17:28:43.383Z,18.20
2022-09-27T17:32:46.319Z,18.10
2022-09-27T17:36:51.817Z,18.10
2022-09-27T17:41:13.460Z,18.00
2022-09-27T17:45:17.004Z,18.00
2022-09-27T17:49:38.076Z,17.90
2022-09-27T17:53:41.316Z,17.80
2022-09-27T17:57:46.347Z,17.80
2022-09-27T18:01:51.461Z,17.80
2022-09-27T18:05:55.266Z,17.80
2022-09-27T18:10:02.606Z,17.70
2022-09-27T18:14:07.833Z,17.50
2022-09-27T18:18:11.985Z,17.50
2022-09-27T18:22:29.773Z,17.50
2022-09-27T18:26:40.483Z,17.40
2022-09-27T18:30:52.841Z,17.30
2022-09-27T18:34:57.796Z,17.20
2022-09-27T18:39:03.931Z,17.20
2022-09-27T18:43:13.872Z,17.10
2022-09-27T18:47:17.382Z,16.90
2022-09-27T18:51:34.520Z,16.90
2022-09-27T18:55:41.736Z,16.80
2022-09-27T18:59:52.199Z,16.60
2022-09-27T19:03:59.259Z,16.60
2022-09-27T19:08:02.240Z,16.60
2022-09-27T19:12:09.098Z,16.80
2022-09-27T19:21:18.907Z,16.90
2022-09-27T19:25:23.049Z,16.80
2022-09-27T19:29:27.103Z,16.70
2022-09-27T19:33:46.793Z,16.60
2022-09-27T19:46:27.853Z,16.60
2022-09-27T19:59:15.297Z,16.70
2022-09-27T20:03:23.193Z,16.70
2022-09-27T20:07:27.930Z,16.60
2022-09-27T20:11:33.329Z,16.80
2022-09-27T20:15:39.360Z,16.90
2022-09-27T20:19:45.110Z,16.90
2022-09-27T20:23:56.769Z,16.80
2022-09-27T20:28:02.705Z,16.70
2022-09-27T20:36:36.430Z,16.60
2022-09-27T20:40:53.368Z,16.50
2022-09-27T20:44:58.060Z,16.50
2022-09-27T20:49:10.368Z,16.50
2022-09-27T20:53:13.804Z,16.50
2022-09-27T20:57:17.146Z,16.40
2022-09-27T21:01:22.772Z,16.30
2022-09-27T21:05:25.946Z,16.40
2022-09-27T21:09:29.978Z,16.30
2022-09-27T21:13:32.798Z,16.20
2022-09-27T21:17:36.266Z,16.10
2022-09-27T21:21:39.771Z,16.00
2022-09-27T21:25:45.640Z,16.10
2022-09-27T21:29:57.828Z,16.00
2022-09-27T21:34:04.152Z,16.10
2022-09-27T21:38:06.949Z,16.00
2022-09-27T21:42:10.130Z,15.90
2022-09-27T21:46:15.123Z,15.80
2022-09-27T21:50:17.915Z,15.70
2022-09-27T21:54:20.610Z,15.50
2022-09-27T21:58:23.650Z,15.50
2022-09-27T22:02:26.453Z,15.50
2022-09-27T22:06:34.776Z,15.50
2022-09-27T22:10:38.086Z,15.60
2022-09-27T22:14:42.293Z,15.60
2022-09-27T22:18:46.945Z,15.60
2022-09-27T22:22:51.910Z,15.60
2022-09-27T22:26:54.981Z,15.70
2022-09-27T22:31:03.602Z,15.70
2022-09-27T22:35:06.962Z,15.80
2022-09-27T22:39:10.106Z,15.80
2022-09-27T22:43:14.483Z,15.90
2022-09-27T22:47:17.380Z,15.90
2022-09-27T22:51:20.433Z,16.00
2022-09-27T22:55:23.272Z,16.00
2022-09-27T22:59:27.235Z,16.00
2022-09-27T23:03:31.759Z,15.90
2022-09-27T23:07:34.689Z,15.90
2022-09-27T23:11:42.383Z,15.80
2022-09-27T23:15:46.033Z,15.40
2022-09-27T23:19:48.814Z,15.20
2022-09-27T23:23:53.021Z,15.00
2022-09-27T23:28:00.848Z,14.90
2022-09-27T23:32:05.517Z,15.00
2022-09-27T23:36:11.473Z,14.80
2022-09-27T23:40:23.535Z,14.60
2022-09-27T23:44:27.535Z,14.60
2022-09-27T23:48:31.186Z,14.50
2022-09-27T23:52:34.507Z,14.40
2022-09-27T23:56:37.663Z,14.30
